sensor_id;sensor_type;location;lat;lon;timestamp;P1;durP1;ratioP1;P2;durP2;ratioP2
30147;SDS011;16960;49.404;8.248;2023-12-04T00:01:57;5.70;;;5.20;;
30147;SDS011;16960;49.404;8.248;2023-12-04T00:04:24;5.97;;;5.47;;
30147;SDS011;16960;49.404;8.248;2023-12-04T00:06:51;6.43;;;5.90;;
30147;SDS011;16960;49.404;8.248;2023-12-04T00:09:18;6.37;;;5.87;;
30147;SDS011;16960;49.404;8.248;2023-12-04T00:11:46;6.03;;;5.50;;
30147;SDS011;16960;49.404;8.248;2023-12-04T00:14:13;6.03;;;5.53;;
30147;SDS011;16960;49.404;8.248;2023-12-04T00:16:48;7.60;;;6.10;;
30147;SDS011;16960;49.404;8.248;2023-12-04T00:19:17;6.10;;;5.57;;
30147;SDS011;16960;49.404;8.248;2023-12-04T00:21:43;7.20;;;6.60;;
30147;SDS011;16960;49.404;8.248;2023-12-04T00:24:10;7.47;;;6.00;;
30147;SDS011;16960;49.404;8.248;2023-12-04T00:26:37;7.83;;;5.87;;
30147;SDS011;16960;49.404;8.248;2023-12-04T00:29:04;6.10;;;5.50;;
30147;SDS011;16960;49.404;8.248;2023-12-04T00:31:31;7.20;;;5.37;;
30147;SDS011;16960;49.404;8.248;2023-12-04T00:33:58;6.37;;;5.77;;
30147;SDS011;16960;49.404;8.248;2023-12-04T00:36:26;6.23;;;5.73;;
30147;SDS011;16960;49.404;8.248;2023-12-04T00:38:53;5.33;;;4.93;;
30147;SDS011;16960;49.404;8.248;2023-12-04T00:41:20;6.50;;;5.80;;
30147;SDS011;16960;49.404;8.248;2023-12-04T00:43:47;5.63;;;5.13;;
30147;SDS011;16960;49.404;8.248;2023-12-04T00:46:14;5.40;;;5.00;;
30147;SDS011;16960;49.404;8.248;2023-12-04T00:48:41;6.40;;;5.60;;
30147;SDS011;16960;49.404;8.248;2023-12-04T00:51:08;5.70;;;5.20;;
30147;SDS011;16960;49.404;8.248;2023-12-04T00:53:36;5.87;;;5.23;;
30147;SDS011;16960;49.404;8.248;2023-12-04T00:56:03;6.53;;;5.63;;
30147;SDS011;16960;49.404;8.248;2023-12-04T00:58:31;6.33;;;5.70;;
30147;SDS011;16960;49.404;8.248;2023-12-04T01:00:58;7.10;;;5.60;;
30147;SDS011;16960;49.404;8.248;2023-12-04T01:03:25;5.70;;;5.20;;
30147;SDS011;16960;49.404;8.248;2023-12-04T01:05:52;5.30;;;4.90;;
30147;SDS011;16960;49.404;8.248;2023-12-04T01:08:20;5.83;;;5.23;;
30147;SDS011;16960;49.404;8.248;2023-12-04T01:10:48;6.17;;;5.67;;
30147;SDS011;16960;49.404;8.248;2023-12-04T01:13:15;6.10;;;5.50;;
30147;SDS011;16960;49.404;8.248;2023-12-04T01:15:42;6.27;;;5.77;;
30147;SDS011;16960;49.404;8.248;2023-12-04T01:18:11;5.53;;;5.13;;
30147;SDS011;16960;49.404;8.248;2023-12-04T01:20:38;5.90;;;5.40;;
30147;SDS011;16960;49.404;8.248;2023-12-04T01:23:05;6.37;;;5.83;;
30147;SDS011;16960;49.404;8.248;2023-12-04T01:25:32;6.20;;;5.70;;
30147;SDS011;16960;49.404;8.248;2023-12-04T01:28:00;6.73;;;6.10;;
30147;SDS011;16960;49.404;8.248;2023-12-04T01:30:27;6.50;;;5.90;;
30147;SDS011;16960;49.404;8.248;2023-12-04T01:32:54;5.93;;;5.43;;
30147;SDS011;16960;49.404;8.248;2023-12-04T01:35:21;5.30;;;4.90;;
30147;SDS011;16960;49.404;8.248;2023-12-04T01:37:48;6.03;;;5.57;;
30147;SDS011;16960;49.404;8.248;2023-12-04T01:40:14;5.93;;;5.50;;
30147;SDS011;16960;49.404;8.248;2023-12-04T01:42:42;5.80;;;5.30;;
30147;SDS011;16960;49.404;8.248;2023-12-04T01:45:10;5.73;;;4.97;;
30147;SDS011;16960;49.404;8.248;2023-12-04T01:47:37;5.70;;;5.20;;
30147;SDS011;16960;49.404;8.248;2023-12-04T01:50:05;5.30;;;4.90;;
30147;SDS011;16960;49.404;8.248;2023-12-04T01:52:33;6.17;;;5.67;;
30147;SDS011;16960;49.404;8.248;2023-12-04T01:55:01;6.10;;;5.60;;
30147;SDS011;16960;49.404;8.248;2023-12-04T01:57:29;5.60;;;5.17;;
30147;SDS011;16960;49.404;8.248;2023-12-04T01:59:56;5.30;;;4.90;;
30147;SDS011;16960;49.404;8.248;2023-12-04T02:02:24;5.63;;;5.13;;
30147;SDS011;16960;49.404;8.248;2023-12-04T02:04:51;6.03;;;5.47;;
30147;SDS011;16960;49.404;8.248;2023-12-04T02:07:21;5.00;;;4.60;;
30147;SDS011;16960;49.404;8.248;2023-12-04T02:09:48;5.40;;;5.00;;
30147;SDS011;16960;49.404;8.248;2023-12-04T02:12:15;5.23;;;4.80;;
30147;SDS011;16960;49.404;8.248;2023-12-04T02:14:43;6.30;;;5.70;;
30147;SDS011;16960;49.404;8.248;2023-12-04T02:17:10;5.13;;;4.73;;
30147;SDS011;16960;49.404;8.248;2023-12-04T02:19:40;5.90;;;5.40;;
30147;SDS011;16960;49.404;8.248;2023-12-04T02:22:07;6.23;;;5.70;;
30147;SDS011;16960;49.404;8.248;2023-12-04T02:24:35;5.60;;;5.10;;
30147;SDS011;16960;49.404;8.248;2023-12-04T02:27:04;5.27;;;4.87;;
30147;SDS011;16960;49.404;8.248;2023-12-04T02:29:41;5.30;;;4.90;;
30147;SDS011;16960;49.404;8.248;2023-12-04T02:32:14;5.60;;;5.10;;
30147;SDS011;16960;49.404;8.248;2023-12-04T02:34:43;5.37;;;4.97;;
30147;SDS011;16960;49.404;8.248;2023-12-04T02:37:11;5.70;;;5.20;;
30147;SDS011;16960;49.404;8.248;2023-12-04T02:39:41;5.37;;;4.87;;
30147;SDS011;16960;49.404;8.248;2023-12-04T02:42:08;6.10;;;5.53;;
30147;SDS011;16960;49.404;8.248;2023-12-04T02:44:35;5.80;;;5.30;;
30147;SDS011;16960;49.404;8.248;2023-12-04T02:47:02;5.73;;;5.23;;
30147;SDS011;16960;49.404;8.248;2023-12-04T02:49:29;4.53;;;4.20;;
30147;SDS011;16960;49.404;8.248;2023-12-04T02:51:56;5.87;;;5.37;;
30147;SDS011;16960;49.404;8.248;2023-12-04T02:54:23;5.93;;;5.33;;
30147;SDS011;16960;49.404;8.248;2023-12-04T02:56:51;5.40;;;4.90;;
30147;SDS011;16960;49.404;8.248;2023-12-04T02:59:18;6.13;;;5.63;;
30147;SDS011;16960;49.404;8.248;2023-12-04T03:01:45;5.27;;;4.80;;
30147;SDS011;16960;49.404;8.248;2023-12-04T03:04:12;5.30;;;4.90;;
30147;SDS011;16960;49.404;8.248;2023-12-04T03:06:39;5.83;;;5.33;;
30147;SDS011;16960;49.404;8.248;2023-12-04T03:09:06;4.90;;;4.50;;
30147;SDS011;16960;49.404;8.248;2023-12-04T03:11:33;5.80;;;5.30;;
30147;SDS011;16960;49.404;8.248;2023-12-04T03:14:01;6.20;;;4.70;;
30147;SDS011;16960;49.404;8.248;2023-12-04T03:16:28;5.20;;;4.70;;
30147;SDS011;16960;49.404;8.248;2023-12-04T03:18:55;5.27;;;4.77;;
30147;SDS011;16960;49.404;8.248;2023-12-04T03:21:22;4.93;;;4.53;;
30147;SDS011;16960;49.404;8.248;2023-12-04T03:23:49;5.30;;;4.90;;
30147;SDS011;16960;49.404;8.248;2023-12-04T03:26:16;4.90;;;4.57;;
30147;SDS011;16960;49.404;8.248;2023-12-04T03:28:43;5.50;;;5.00;;
30147;SDS011;16960;49.404;8.248;2023-12-04T03:31:11;5.23;;;4.83;;
30147;SDS011;16960;49.404;8.248;2023-12-04T03:33:38;4.93;;;4.53;;
30147;SDS011;16960;49.404;8.248;2023-12-04T03:36:05;5.60;;;5.20;;
30147;SDS011;16960;49.404;8.248;2023-12-04T03:38:33;5.10;;;4.70;;
30147;SDS011;16960;49.404;8.248;2023-12-04T03:41:00;4.50;;;4.10;;
30147;SDS011;16960;49.404;8.248;2023-12-04T03:43:27;4.90;;;4.50;;
30147;SDS011;16960;49.404;8.248;2023-12-04T03:45:54;5.30;;;4.80;;
30147;SDS011;16960;49.404;8.248;2023-12-04T03:48:22;4.80;;;4.40;;
30147;SDS011;16960;49.404;8.248;2023-12-04T03:50:49;4.63;;;4.33;;
30147;SDS011;16960;49.404;8.248;2023-12-04T03:53:16;4.67;;;4.27;;
30147;SDS011;16960;49.404;8.248;2023-12-04T03:55:42;4.83;;;4.43;;
30147;SDS011;16960;49.404;8.248;2023-12-04T03:58:09;5.30;;;4.87;;
30147;SDS011;16960;49.404;8.248;2023-12-04T04:00:36;5.47;;;4.97;;
30147;SDS011;16960;49.404;8.248;2023-12-04T04:03:06;4.80;;;4.47;;
30147;SDS011;16960;49.404;8.248;2023-12-04T04:05:34;5.00;;;4.60;;
30147;SDS011;16960;49.404;8.248;2023-12-04T04:08:01;5.17;;;4.77;;
30147;SDS011;16960;49.404;8.248;2023-12-04T04:10:30;5.00;;;4.50;;
30147;SDS011;16960;49.404;8.248;2023-12-04T04:12:57;5.20;;;4.80;;
30147;SDS011;16960;49.404;8.248;2023-12-04T04:15:24;5.00;;;4.50;;
30147;SDS011;16960;49.404;8.248;2023-12-04T04:17:52;4.40;;;4.10;;
30147;SDS011;16960;49.404;8.248;2023-12-04T04:20:19;5.60;;;5.20;;
30147;SDS011;16960;49.404;8.248;2023-12-04T04:22:48;4.77;;;4.37;;
30147;SDS011;16960;49.404;8.248;2023-12-04T04:25:15;4.97;;;4.07;;
30147;SDS011;16960;49.404;8.248;2023-12-04T04:27:43;5.13;;;4.70;;
30147;SDS011;16960;49.404;8.248;2023-12-04T04:30:11;4.77;;;4.37;;
30147;SDS011;16960;49.404;8.248;2023-12-04T04:32:38;5.10;;;4.70;;
30147;SDS011;16960;49.404;8.248;2023-12-04T04:35:06;4.70;;;4.40;;
30147;SDS011;16960;49.404;8.248;2023-12-04T04:37:33;4.40;;;4.00;;
30147;SDS011;16960;49.404;8.248;2023-12-04T04:40:02;4.87;;;4.47;;
30147;SDS011;16960;49.404;8.248;2023-12-04T04:42:29;5.00;;;4.60;;
30147;SDS011;16960;49.404;8.248;2023-12-04T04:44:56;4.57;;;4.17;;
30147;SDS011;16960;49.404;8.248;2023-12-04T04:47:23;4.70;;;4.30;;
30147;SDS011;16960;49.404;8.248;2023-12-04T04:49:49;4.37;;;4.07;;
30147;SDS011;16960;49.404;8.248;2023-12-04T04:52:16;4.53;;;4.13;;
30147;SDS011;16960;49.404;8.248;2023-12-04T04:54:43;4.40;;;4.10;;
30147;SDS011;16960;49.404;8.248;2023-12-04T04:57:12;4.73;;;4.33;;
30147;SDS011;16960;49.404;8.248;2023-12-04T04:59:39;5.00;;;4.60;;
30147;SDS011;16960;49.404;8.248;2023-12-04T05:02:05;5.20;;;4.80;;
30147;SDS011;16960;49.404;8.248;2023-12-04T05:04:32;4.50;;;4.20;;
30147;SDS011;16960;49.404;8.248;2023-12-04T05:07:00;4.63;;;4.23;;
30147;SDS011;16960;49.404;8.248;2023-12-04T05:09:26;4.67;;;4.27;;
30147;SDS011;16960;49.404;8.248;2023-12-04T05:11:53;4.00;;;3.70;;
30147;SDS011;16960;49.404;8.248;2023-12-04T05:14:22;4.70;;;4.30;;
30147;SDS011;16960;49.404;8.248;2023-12-04T05:16:48;4.27;;;3.97;;
30147;SDS011;16960;49.404;8.248;2023-12-04T05:19:15;3.70;;;3.40;;
30147;SDS011;16960;49.404;8.248;2023-12-04T05:21:42;4.77;;;4.37;;
30147;SDS011;16960;49.404;8.248;2023-12-04T05:24:09;3.90;;;3.60;;
30147;SDS011;16960;49.404;8.248;2023-12-04T05:26:36;5.20;;;4.70;;
30147;SDS011;16960;49.404;8.248;2023-12-04T05:29:03;4.17;;;3.83;;
30147;SDS011;16960;49.404;8.248;2023-12-04T05:31:31;3.90;;;3.60;;
30147;SDS011;16960;49.404;8.248;2023-12-04T05:33:58;4.33;;;3.93;;
30147;SDS011;16960;49.404;8.248;2023-12-04T05:36:25;4.20;;;3.87;;
30147;SDS011;16960;49.404;8.248;2023-12-04T05:38:52;3.50;;;3.20;;
30147;SDS011;16960;49.404;8.248;2023-12-04T05:41:19;4.27;;;3.97;;
30147;SDS011;16960;49.404;8.248;2023-12-04T05:43:46;3.70;;;3.40;;
30147;SDS011;16960;49.404;8.248;2023-12-04T05:46:13;4.57;;;4.17;;
30147;SDS011;16960;49.404;8.248;2023-12-04T05:48:41;4.20;;;3.90;;
30147;SDS011;16960;49.404;8.248;2023-12-04T05:51:09;4.37;;;3.97;;
30147;SDS011;16960;49.404;8.248;2023-12-04T05:53:37;3.60;;;3.30;;
30147;SDS011;16960;49.404;8.248;2023-12-04T05:56:04;3.60;;;3.30;;
30147;SDS011;16960;49.404;8.248;2023-12-04T05:58:33;3.80;;;3.50;;
30147;SDS011;16960;49.404;8.248;2023-12-04T06:01:00;4.03;;;3.73;;
30147;SDS011;16960;49.404;8.248;2023-12-04T06:03:27;3.97;;;3.67;;
30147;SDS011;16960;49.404;8.248;2023-12-04T06:05:56;4.33;;;3.97;;
30147;SDS011;16960;49.404;8.248;2023-12-04T06:08:23;4.10;;;3.83;;
30147;SDS011;16960;49.404;8.248;2023-12-04T06:10:50;4.43;;;4.03;;
30147;SDS011;16960;49.404;8.248;2023-12-04T06:13:16;3.90;;;3.60;;
30147;SDS011;16960;49.404;8.248;2023-12-04T06:15:43;4.27;;;3.90;;
30147;SDS011;16960;49.404;8.248;2023-12-04T06:18:10;3.83;;;3.50;;
30147;SDS011;16960;49.404;8.248;2023-12-04T06:20:37;3.90;;;3.60;;
30147;SDS011;16960;49.404;8.248;2023-12-04T06:23:06;4.10;;;3.80;;
30147;SDS011;16960;49.404;8.248;2023-12-04T06:25:33;3.90;;;3.60;;
30147;SDS011;16960;49.404;8.248;2023-12-04T06:28:01;3.83;;;3.53;;
30147;SDS011;16960;49.404;8.248;2023-12-04T06:30:28;4.03;;;3.73;;
30147;SDS011;16960;49.404;8.248;2023-12-04T06:32:56;3.50;;;3.20;;
30147;SDS011;16960;49.404;8.248;2023-12-04T06:35:23;3.83;;;3.53;;
30147;SDS011;16960;49.404;8.248;2023-12-04T06:37:51;3.90;;;3.60;;
30147;SDS011;16960;49.404;8.248;2023-12-04T06:40:22;3.83;;;3.53;;
30147;SDS011;16960;49.404;8.248;2023-12-04T06:42:49;3.67;;;3.37;;
30147;SDS011;16960;49.404;8.248;2023-12-04T06:45:17;3.17;;;2.97;;
30147;SDS011;16960;49.404;8.248;2023-12-04T06:47:45;4.07;;;3.77;;
30147;SDS011;16960;49.404;8.248;2023-12-04T06:50:15;4.27;;;3.87;;
30147;SDS011;16960;49.404;8.248;2023-12-04T06:52:42;3.70;;;3.40;;
30147;SDS011;16960;49.404;8.248;2023-12-04T06:55:09;4.03;;;3.63;;
30147;SDS011;16960;49.404;8.248;2023-12-04T06:57:38;3.90;;;3.50;;
30147;SDS011;16960;49.404;8.248;2023-12-04T07:00:05;4.57;;;3.13;;
30147;SDS011;16960;49.404;8.248;2023-12-04T07:02:33;11.80;;;3.57;;
30147;SDS011;16960;49.404;8.248;2023-12-04T07:05:00;5.40;;;3.23;;
30147;SDS011;16960;49.404;8.248;2023-12-04T07:07:28;4.60;;;3.23;;
30147;SDS011;16960;49.404;8.248;2023-12-04T07:09:55;5.30;;;3.20;;
30147;SDS011;16960;49.404;8.248;2023-12-04T07:12:22;4.93;;;3.47;;
30147;SDS011;16960;49.404;8.248;2023-12-04T07:14:50;6.63;;;3.80;;
30147;SDS011;16960;49.404;8.248;2023-12-04T07:17:17;3.30;;;3.10;;
30147;SDS011;16960;49.404;8.248;2023-12-04T07:19:44;3.60;;;3.30;;
30147;SDS011;16960;49.404;8.248;2023-12-04T07:22:11;3.53;;;3.23;;
30147;SDS011;16960;49.404;8.248;2023-12-04T07:24:38;3.63;;;3.30;;
30147;SDS011;16960;49.404;8.248;2023-12-04T07:27:05;3.67;;;3.33;;
30147;SDS011;16960;49.404;8.248;2023-12-04T07:29:34;3.87;;;3.50;;
30147;SDS011;16960;49.404;8.248;2023-12-04T07:32:04;3.63;;;3.03;;
30147;SDS011;16960;49.404;8.248;2023-12-04T07:34:32;5.00;;;3.70;;
30147;SDS011;16960;49.404;8.248;2023-12-04T07:36:59;3.90;;;3.60;;
30147;SDS011;16960;49.404;8.248;2023-12-04T07:39:26;3.73;;;3.43;;
30147;SDS011;16960;49.404;8.248;2023-12-04T07:41:52;3.03;;;2.83;;
30147;SDS011;16960;49.404;8.248;2023-12-04T07:44:19;4.70;;;3.43;;
30147;SDS011;16960;49.404;8.248;2023-12-04T07:46:46;3.73;;;3.43;;
30147;SDS011;16960;49.404;8.248;2023-12-04T07:49:14;3.40;;;3.10;;
30147;SDS011;16960;49.404;8.248;2023-12-04T07:51:41;3.87;;;3.47;;
30147;SDS011;16960;49.404;8.248;2023-12-04T07:54:08;3.53;;;3.23;;
30147;SDS011;16960;49.404;8.248;2023-12-04T07:56:35;3.67;;;3.37;;
30147;SDS011;16960;49.404;8.248;2023-12-04T07:59:02;3.60;;;3.30;;
30147;SDS011;16960;49.404;8.248;2023-12-04T08:01:29;4.00;;;3.60;;
30147;SDS011;16960;49.404;8.248;2023-12-04T08:03:56;3.23;;;2.93;;
30147;SDS011;16960;49.404;8.248;2023-12-04T08:06:24;3.13;;;2.93;;
30147;SDS011;16960;49.404;8.248;2023-12-04T08:08:51;5.37;;;3.27;;
30147;SDS011;16960;49.404;8.248;2023-12-04T08:11:18;3.17;;;2.90;;
30147;SDS011;16960;49.404;8.248;2023-12-04T08:13:45;3.20;;;2.90;;
30147;SDS011;16960;49.404;8.248;2023-12-04T08:16:15;3.53;;;2.80;;
30147;SDS011;16960;49.404;8.248;2023-12-04T08:18:42;6.23;;;3.23;;
30147;SDS011;16960;49.404;8.248;2023-12-04T08:21:09;3.00;;;2.80;;
30147;SDS011;16960;49.404;8.248;2023-12-04T08:23:38;3.70;;;3.40;;
30147;SDS011;16960;49.404;8.248;2023-12-04T08:26:05;3.43;;;3.13;;
30147;SDS011;16960;49.404;8.248;2023-12-04T08:28:33;3.80;;;3.50;;
30147;SDS011;16960;49.404;8.248;2023-12-04T08:31:00;3.23;;;3.03;;
30147;SDS011;16960;49.404;8.248;2023-12-04T08:33:27;3.60;;;3.30;;
30147;SDS011;16960;49.404;8.248;2023-12-04T08:35:54;3.03;;;2.83;;
30147;SDS011;16960;49.404;8.248;2023-12-04T08:38:21;3.40;;;3.10;;
30147;SDS011;16960;49.404;8.248;2023-12-04T08:40:49;3.97;;;3.67;;
30147;SDS011;16960;49.404;8.248;2023-12-04T08:43:16;3.90;;;3.57;;
30147;SDS011;16960;49.404;8.248;2023-12-04T08:45:43;4.30;;;3.90;;
30147;SDS011;16960;49.404;8.248;2023-12-04T08:48:12;3.90;;;3.60;;
30147;SDS011;16960;49.404;8.248;2023-12-04T08:50:39;3.73;;;3.33;;
30147;SDS011;16960;49.404;8.248;2023-12-04T08:53:06;5.13;;;3.73;;
30147;SDS011;16960;49.404;8.248;2023-12-04T08:55:33;4.40;;;4.00;;
30147;SDS011;16960;49.404;8.248;2023-12-04T08:58:01;5.40;;;3.50;;
30147;SDS011;16960;49.404;8.248;2023-12-04T09:00:29;4.03;;;3.50;;
30147;SDS011;16960;49.404;8.248;2023-12-04T09:02:55;5.03;;;3.63;;
30147;SDS011;16960;49.404;8.248;2023-12-04T09:05:22;3.23;;;2.73;;
30147;SDS011;16960;49.404;8.248;2023-12-04T09:07:49;3.47;;;3.17;;
30147;SDS011;16960;49.404;8.248;2023-12-04T09:10:16;3.53;;;3.23;;
30147;SDS011;16960;49.404;8.248;2023-12-04T09:12:43;3.80;;;3.50;;
30147;SDS011;16960;49.404;8.248;2023-12-04T09:15:12;4.07;;;3.77;;
30147;SDS011;16960;49.404;8.248;2023-12-04T09:17:40;3.13;;;2.93;;
30147;SDS011;16960;49.404;8.248;2023-12-04T09:20:07;3.60;;;3.30;;
30147;SDS011;16960;49.404;8.248;2023-12-04T09:22:34;3.40;;;3.10;;
30147;SDS011;16960;49.404;8.248;2023-12-04T09:25:04;3.50;;;3.20;;
30147;SDS011;16960;49.404;8.248;2023-12-04T09:27:31;3.50;;;3.20;;
30147;SDS011;16960;49.404;8.248;2023-12-04T09:29:58;3.17;;;2.97;;
30147;SDS011;16960;49.404;8.248;2023-12-04T09:32:26;3.60;;;3.30;;
30147;SDS011;16960;49.404;8.248;2023-12-04T09:34:53;3.30;;;3.00;;
30147;SDS011;16960;49.404;8.248;2023-12-04T09:37:20;5.50;;;3.27;;
30147;SDS011;16960;49.404;8.248;2023-12-04T09:39:47;3.67;;;3.37;;
30147;SDS011;16960;49.404;8.248;2023-12-04T09:42:14;4.23;;;3.83;;
30147;SDS011;16960;49.404;8.248;2023-12-04T09:44:44;3.47;;;3.17;;
30147;SDS011;16960;49.404;8.248;2023-12-04T09:47:13;3.03;;;2.83;;
30147;SDS011;16960;49.404;8.248;2023-12-04T09:49:44;3.53;;;3.23;;
30147;SDS011;16960;49.404;8.248;2023-12-04T09:52:11;3.50;;;3.20;;
30147;SDS011;16960;49.404;8.248;2023-12-04T09:54:38;4.50;;;3.63;;
30147;SDS011;16960;49.404;8.248;2023-12-04T09:57:07;3.37;;;3.07;;
30147;SDS011;16960;49.404;8.248;2023-12-04T09:59:34;4.03;;;3.47;;
30147;SDS011;16960;49.404;8.248;2023-12-04T10:02:02;3.90;;;3.60;;
30147;SDS011;16960;49.404;8.248;2023-12-04T10:04:31;3.40;;;3.10;;
30147;SDS011;16960;49.404;8.248;2023-12-04T10:07:00;3.90;;;3.10;;
30147;SDS011;16960;49.404;8.248;2023-12-04T10:09:27;3.57;;;3.13;;
30147;SDS011;16960;49.404;8.248;2023-12-04T10:11:55;4.10;;;3.40;;
30147;SDS011;16960;49.404;8.248;2023-12-04T10:14:23;3.53;;;3.23;;
30147;SDS011;16960;49.404;8.248;2023-12-04T10:16:50;3.77;;;3.10;;
30147;SDS011;16960;49.404;8.248;2023-12-04T10:19:20;3.63;;;3.33;;
30147;SDS011;16960;49.404;8.248;2023-12-04T10:21:48;4.33;;;3.23;;
30147;SDS011;16960;49.404;8.248;2023-12-04T10:24:30;3.27;;;2.97;;
30147;SDS011;16960;49.404;8.248;2023-12-04T10:27:00;3.17;;;2.97;;
30147;SDS011;16960;49.404;8.248;2023-12-04T10:29:30;3.13;;;2.93;;
30147;SDS011;16960;49.404;8.248;2023-12-04T10:32:08;3.27;;;2.97;;
30147;SDS011;16960;49.404;8.248;2023-12-04T10:34:35;5.70;;;3.40;;
30147;SDS011;16960;49.404;8.248;2023-12-04T10:37:02;3.57;;;3.27;;
30147;SDS011;16960;49.404;8.248;2023-12-04T10:39:32;2.83;;;2.63;;
30147;SDS011;16960;49.404;8.248;2023-12-04T10:42:15;2.90;;;2.70;;
30147;SDS011;16960;49.404;8.248;2023-12-04T10:44:49;3.00;;;2.80;;
30147;SDS011;16960;49.404;8.248;2023-12-04T10:47:17;3.17;;;2.87;;
30147;SDS011;16960;49.404;8.248;2023-12-04T10:49:46;3.03;;;2.83;;
30147;SDS011;16960;49.404;8.248;2023-12-04T10:52:15;3.47;;;3.17;;
30147;SDS011;16960;49.404;8.248;2023-12-04T10:54:45;2.90;;;2.67;;
30147;SDS011;16960;49.404;8.248;2023-12-04T10:57:13;3.20;;;3.00;;
30147;SDS011;16960;49.404;8.248;2023-12-04T10:59:47;3.13;;;2.93;;
30147;SDS011;16960;49.404;8.248;2023-12-04T11:02:18;3.43;;;3.13;;
30147;SDS011;16960;49.404;8.248;2023-12-04T11:04:48;3.00;;;2.80;;
30147;SDS011;16960;49.404;8.248;2023-12-04T11:07:20;3.23;;;2.90;;
30147;SDS011;16960;49.404;8.248;2023-12-04T11:09:51;3.30;;;3.00;;
30147;SDS011;16960;49.404;8.248;2023-12-04T11:12:18;2.83;;;2.63;;
30147;SDS011;16960;49.404;8.248;2023-12-04T11:14:49;3.63;;;3.33;;
30147;SDS011;16960;49.404;8.248;2023-12-04T11:17:23;3.30;;;3.00;;
30147;SDS011;16960;49.404;8.248;2023-12-04T11:19:54;3.47;;;3.17;;
30147;SDS011;16960;49.404;8.248;2023-12-04T11:22:26;3.37;;;3.13;;
30147;SDS011;16960;49.404;8.248;2023-12-04T11:24:56;3.07;;;2.87;;
30147;SDS011;16960;49.404;8.248;2023-12-04T11:27:23;4.40;;;2.90;;
30147;SDS011;16960;49.404;8.248;2023-12-04T11:29:50;2.93;;;2.73;;
30147;SDS011;16960;49.404;8.248;2023-12-04T11:32:17;2.90;;;2.70;;
30147;SDS011;16960;49.404;8.248;2023-12-04T11:34:49;3.10;;;2.90;;
30147;SDS011;16960;49.404;8.248;2023-12-04T11:37:17;3.50;;;3.20;;
30147;SDS011;16960;49.404;8.248;2023-12-04T11:39:46;3.13;;;2.93;;
30147;SDS011;16960;49.404;8.248;2023-12-04T11:42:15;3.87;;;3.57;;
30147;SDS011;16960;49.404;8.248;2023-12-04T11:44:47;3.33;;;3.03;;
30147;SDS011;16960;49.404;8.248;2023-12-04T11:47:14;3.30;;;3.00;;
30147;SDS011;16960;49.404;8.248;2023-12-04T11:49:42;4.20;;;3.17;;
30147;SDS011;16960;49.404;8.248;2023-12-04T11:52:09;3.20;;;2.80;;
30147;SDS011;16960;49.404;8.248;2023-12-04T11:54:55;2.77;;;2.57;;
30147;SDS011;16960;49.404;8.248;2023-12-04T11:57:25;3.13;;;2.80;;
30147;SDS011;16960;49.404;8.248;2023-12-04T12:00:03;3.47;;;3.10;;
30147;SDS011;16960;49.404;8.248;2023-12-04T12:02:36;3.47;;;3.03;;
30147;SDS011;16960;49.404;8.248;2023-12-04T12:05:03;3.67;;;3.37;;
30147;SDS011;16960;49.404;8.248;2023-12-04T12:07:31;3.73;;;3.43;;
30147;SDS011;16960;49.404;8.248;2023-12-04T12:09:58;3.27;;;3.07;;
30147;SDS011;16960;49.404;8.248;2023-12-04T12:12:27;3.20;;;2.83;;
30147;SDS011;16960;49.404;8.248;2023-12-04T12:14:54;3.23;;;2.93;;
30147;SDS011;16960;49.404;8.248;2023-12-04T12:17:21;2.97;;;2.77;;
30147;SDS011;16960;49.404;8.248;2023-12-04T12:19:48;6.30;;;3.37;;
30147;SDS011;16960;49.404;8.248;2023-12-04T12:22:15;3.10;;;2.90;;
30147;SDS011;16960;49.404;8.248;2023-12-04T12:24:42;3.10;;;2.90;;
30147;SDS011;16960;49.404;8.248;2023-12-04T12:27:08;2.70;;;2.50;;
30147;SDS011;16960;49.404;8.248;2023-12-04T12:29:37;3.33;;;3.03;;
30147;SDS011;16960;49.404;8.248;2023-12-04T12:32:04;3.00;;;2.80;;
30147;SDS011;16960;49.404;8.248;2023-12-04T12:34:31;3.40;;;2.87;;
30147;SDS011;16960;49.404;8.248;2023-12-04T12:37:01;3.80;;;2.90;;
30147;SDS011;16960;49.404;8.248;2023-12-04T12:39:29;3.27;;;3.00;;
30147;SDS011;16960;49.404;8.248;2023-12-04T12:41:56;2.87;;;2.67;;
30147;SDS011;16960;49.404;8.248;2023-12-04T12:44:23;3.30;;;3.10;;
30147;SDS011;16960;49.404;8.248;2023-12-04T12:46:52;2.70;;;2.50;;
30147;SDS011;16960;49.404;8.248;2023-12-04T12:49:18;3.17;;;2.53;;
30147;SDS011;16960;49.404;8.248;2023-12-04T12:51:46;3.20;;;2.90;;
30147;SDS011;16960;49.404;8.248;2023-12-04T12:54:13;3.10;;;2.57;;
30147;SDS011;16960;49.404;8.248;2023-12-04T12:56:40;3.30;;;3.00;;
30147;SDS011;16960;49.404;8.248;2023-12-04T12:59:07;3.00;;;2.80;;
30147;SDS011;16960;49.404;8.248;2023-12-04T13:01:34;3.60;;;3.30;;
30147;SDS011;16960;49.404;8.248;2023-12-04T13:04:03;2.93;;;2.73;;
30147;SDS011;16960;49.404;8.248;2023-12-04T13:06:30;3.10;;;2.90;;
30147;SDS011;16960;49.404;8.248;2023-12-04T13:08:57;2.80;;;2.60;;
30147;SDS011;16960;49.404;8.248;2023-12-04T13:11:24;3.57;;;3.27;;
30147;SDS011;16960;49.404;8.248;2023-12-04T13:13:51;2.83;;;2.63;;
30147;SDS011;16960;49.404;8.248;2023-12-04T13:16:18;3.20;;;2.90;;
30147;SDS011;16960;49.404;8.248;2023-12-04T13:18:44;2.90;;;2.70;;
30147;SDS011;16960;49.404;8.248;2023-12-04T13:21:13;2.77;;;2.57;;
30147;SDS011;16960;49.404;8.248;2023-12-04T13:23:40;2.37;;;2.17;;
30147;SDS011;16960;49.404;8.248;2023-12-04T13:26:07;3.10;;;2.63;;
30147;SDS011;16960;49.404;8.248;2023-12-04T13:28:35;2.90;;;2.60;;
30147;SDS011;16960;49.404;8.248;2023-12-04T13:31:03;3.43;;;3.13;;
30147;SDS011;16960;49.404;8.248;2023-12-04T13:33:30;2.60;;;2.40;;
30147;SDS011;16960;49.404;8.248;2023-12-04T13:35:57;2.90;;;2.70;;
30147;SDS011;16960;49.404;8.248;2023-12-04T13:38:26;3.07;;;2.77;;
30147;SDS011;16960;49.404;8.248;2023-12-04T13:40:52;3.03;;;2.83;;
30147;SDS011;16960;49.404;8.248;2023-12-04T13:43:33;3.13;;;2.83;;
30147;SDS011;16960;49.404;8.248;2023-12-04T13:46:18;3.20;;;2.90;;
30147;SDS011;16960;49.404;8.248;2023-12-04T13:48:45;4.07;;;2.83;;
30147;SDS011;16960;49.404;8.248;2023-12-04T13:51:12;3.27;;;2.97;;
30147;SDS011;16960;49.404;8.248;2023-12-04T13:53:41;3.67;;;3.37;;
30147;SDS011;16960;49.404;8.248;2023-12-04T13:56:10;2.70;;;2.50;;
30147;SDS011;16960;49.404;8.248;2023-12-04T13:58:50;3.27;;;2.97;;
30147;SDS011;16960;49.404;8.248;2023-12-04T14:01:22;3.17;;;2.97;;
30147;SDS011;16960;49.404;8.248;2023-12-04T14:03:50;3.07;;;2.83;;
30147;SDS011;16960;49.404;8.248;2023-12-04T14:06:18;3.00;;;2.70;;
30147;SDS011;16960;49.404;8.248;2023-12-04T14:08:47;3.10;;;2.90;;
30147;SDS011;16960;49.404;8.248;2023-12-04T14:11:21;2.90;;;2.70;;
30147;SDS011;16960;49.404;8.248;2023-12-04T14:13:48;3.27;;;3.07;;
30147;SDS011;16960;49.404;8.248;2023-12-04T14:16:16;2.53;;;2.37;;
30147;SDS011;16960;49.404;8.248;2023-12-04T14:18:43;3.33;;;3.03;;
30147;SDS011;16960;49.404;8.248;2023-12-04T14:21:10;3.03;;;2.73;;
30147;SDS011;16960;49.404;8.248;2023-12-04T14:23:37;3.60;;;3.30;;
30147;SDS011;16960;49.404;8.248;2023-12-04T14:26:23;3.30;;;3.00;;
30147;SDS011;16960;49.404;8.248;2023-12-04T14:28:50;3.13;;;2.90;;
30147;SDS011;16960;49.404;8.248;2023-12-04T14:31:17;3.53;;;3.23;;
30147;SDS011;16960;49.404;8.248;2023-12-04T14:33:44;3.67;;;3.37;;
30147;SDS011;16960;49.404;8.248;2023-12-04T14:36:11;3.40;;;3.10;;
30147;SDS011;16960;49.404;8.248;2023-12-04T14:38:39;3.17;;;2.80;;
30147;SDS011;16960;49.404;8.248;2023-12-04T14:41:06;3.27;;;2.97;;
30147;SDS011;16960;49.404;8.248;2023-12-04T14:43:35;3.40;;;3.10;;
30147;SDS011;16960;49.404;8.248;2023-12-04T14:46:03;2.90;;;2.70;;
30147;SDS011;16960;49.404;8.248;2023-12-04T14:48:33;2.90;;;2.70;;
30147;SDS011;16960;49.404;8.248;2023-12-04T14:51:01;3.23;;;3.00;;
30147;SDS011;16960;49.404;8.248;2023-12-04T14:53:29;3.00;;;2.80;;